sensor_id;sensor_type;location;lat;lon;timestamp;P1;durP1;ratioP1;P2;durP2;ratioP2
58978;SDS011;44763;50.464;30.612;2022-08-26T00:00:42;8.43;;;6.77;;
58978;SDS011;44763;50.464;30.612;2022-08-26T00:03:10;8.25;;;6.75;;
58978;SDS011;44763;50.464;30.612;2022-08-26T00:05:38;8.78;;;7.97;;
58978;SDS011;44763;50.464;30.612;2022-08-26T00:08:06;10.48;;;7.35;;
58978;SDS011;44763;50.464;30.612;2022-08-26T00:10:33;7.62;;;6.65;;
58978;SDS011;44763;50.464;30.612;2022-08-26T00:13:00;7.33;;;6.58;;
58978;SDS011;44763;50.464;30.612;2022-08-26T00:15:29;7.92;;;6.95;;
58978;SDS011;44763;50.464;30.612;2022-08-26T00:17:56;7.60;;;6.92;;
58978;SDS011;44763;50.464;30.612;2022-08-26T00:20:25;8.13;;;6.10;;
58978;SDS011;44763;50.464;30.612;2022-08-26T00:22:54;7.08;;;6.37;;
58978;SDS011;44763;50.464;30.612;2022-08-26T00:25:21;8.75;;;7.03;;
58978;SDS011;44763;50.464;30.612;2022-08-26T00:27:48;7.60;;;7.00;;
58978;SDS011;44763;50.464;30.612;2022-08-26T00:30:17;7.00;;;6.42;;
58978;SDS011;44763;50.464;30.612;2022-08-26T00:32:46;8.25;;;7.25;;
58978;SDS011;44763;50.464;30.612;2022-08-26T00:35:13;7.60;;;6.78;;
58978;SDS011;44763;50.464;30.612;2022-08-26T00:37:40;9.68;;;7.85;;
58978;SDS011;44763;50.464;30.612;2022-08-26T00:40:10;7.00;;;6.50;;
58978;SDS011;44763;50.464;30.612;2022-08-26T00:42:45;9.45;;;6.58;;
58978;SDS011;44763;50.464;30.612;2022-08-26T00:45:12;8.15;;;7.33;;
58978;SDS011;44763;50.464;30.612;2022-08-26T00:47:42;6.80;;;6.20;;
58978;SDS011;44763;50.464;30.612;2022-08-26T00:50:21;7.95;;;7.25;;
58978;SDS011;44763;50.464;30.612;2022-08-26T00:52:51;9.50;;;6.87;;
58978;SDS011;44763;50.464;30.612;2022-08-26T00:55:21;7.17;;;6.37;;
58978;SDS011;44763;50.464;30.612;2022-08-26T00:58:05;7.97;;;7.28;;
58978;SDS011;44763;50.464;30.612;2022-08-26T01:00:34;8.30;;;7.50;;
58978;SDS011;44763;50.464;30.612;2022-08-26T01:03:00;8.38;;;6.90;;
58978;SDS011;44763;50.464;30.612;2022-08-26T01:05:28;7.90;;;6.80;;
58978;SDS011;44763;50.464;30.612;2022-08-26T01:07:55;8.70;;;7.53;;
58978;SDS011;44763;50.464;30.612;2022-08-26T01:10:24;7.78;;;7.08;;
58978;SDS011;44763;50.464;30.612;2022-08-26T01:12:57;7.47;;;6.65;;
58978;SDS011;44763;50.464;30.612;2022-08-26T01:15:26;8.10;;;7.30;;
58978;SDS011;44763;50.464;30.612;2022-08-26T01:17:57;7.45;;;6.85;;
58978;SDS011;44763;50.464;30.612;2022-08-26T01:22:58;8.73;;;7.92;;
58978;SDS011;44763;50.464;30.612;2022-08-26T01:25:33;9.05;;;8.25;;
58978;SDS011;44763;50.464;30.612;2022-08-26T01:28:08;8.30;;;7.42;;
58978;SDS011;44763;50.464;30.612;2022-08-26T01:30:41;8.05;;;7.25;;
58978;SDS011;44763;50.464;30.612;2022-08-26T01:33:11;8.35;;;7.50;;
58978;SDS011;44763;50.464;30.612;2022-08-26T01:35:42;8.13;;;7.40;;
58978;SDS011;44763;50.464;30.612;2022-08-26T01:38:11;8.43;;;7.50;;
58978;SDS011;44763;50.464;30.612;2022-08-26T01:40:38;8.68;;;7.97;;
58978;SDS011;44763;50.464;30.612;2022-08-26T01:43:10;8.53;;;7.75;;
58978;SDS011;44763;50.464;30.612;2022-08-26T01:45:41;7.87;;;7.17;;
58978;SDS011;44763;50.464;30.612;2022-08-26T01:48:13;13.65;;;7.85;;
58978;SDS011;44763;50.464;30.612;2022-08-26T01:50:42;7.75;;;6.97;;
58978;SDS011;44763;50.464;30.612;2022-08-26T01:53:10;8.33;;;7.55;;
58978;SDS011;44763;50.464;30.612;2022-08-26T01:55:40;7.95;;;7.15;;
58978;SDS011;44763;50.464;30.612;2022-08-26T01:58:17;7.90;;;7.10;;
58978;SDS011;44763;50.464;30.612;2022-08-26T02:00:50;10.68;;;7.90;;
58978;SDS011;44763;50.464;30.612;2022-08-26T02:03:17;9.80;;;7.15;;
58978;SDS011;44763;50.464;30.612;2022-08-26T02:05:57;8.43;;;7.62;;
58978;SDS011;44763;50.464;30.612;2022-08-26T02:08:34;7.28;;;6.67;;
58978;SDS011;44763;50.464;30.612;2022-08-26T02:10:58;9.83;;;7.85;;
58978;SDS011;44763;50.464;30.612;2022-08-26T02:15:55;9.65;;;8.75;;
58978;SDS011;44763;50.464;30.612;2022-08-26T02:18:24;7.95;;;7.15;;
58978;SDS011;44763;50.464;30.612;2022-08-26T02:20:53;10.58;;;8.08;;
58978;SDS011;44763;50.464;30.612;2022-08-26T02:23:21;8.13;;;6.83;;
58978;SDS011;44763;50.464;30.612;2022-08-26T02:28:31;13.28;;;7.80;;
58978;SDS011;44763;50.464;30.612;2022-08-26T02:31:01;7.95;;;7.17;;
58978;SDS011;44763;50.464;30.612;2022-08-26T02:33:28;14.20;;;8.05;;
58978;SDS011;44763;50.464;30.612;2022-08-26T02:35:55;9.10;;;7.97;;
58978;SDS011;44763;50.464;30.612;2022-08-26T02:38:21;7.92;;;7.22;;
58978;SDS011;44763;50.464;30.612;2022-08-26T02:40:47;8.88;;;7.75;;
58978;SDS011;44763;50.464;30.612;2022-08-26T02:45:40;8.60;;;7.80;;
58978;SDS011;44763;50.464;30.612;2022-08-26T02:48:07;9.68;;;8.75;;
58978;SDS011;44763;50.464;30.612;2022-08-26T02:50:38;9.00;;;8.10;;
58978;SDS011;44763;50.464;30.612;2022-08-26T02:53:05;10.05;;;9.03;;
58978;SDS011;44763;50.464;30.612;2022-08-26T02:55:33;8.85;;;8.05;;
58978;SDS011;44763;50.464;30.612;2022-08-26T02:57:59;8.88;;;8.08;;
58978;SDS011;44763;50.464;30.612;2022-08-26T03:00:26;9.93;;;8.70;;
58978;SDS011;44763;50.464;30.612;2022-08-26T03:02:52;9.40;;;8.25;;
58978;SDS011;44763;50.464;30.612;2022-08-26T03:05:19;8.50;;;7.70;;
58978;SDS011;44763;50.464;30.612;2022-08-26T03:07:47;9.18;;;8.28;;
58978;SDS011;44763;50.464;30.612;2022-08-26T03:10:14;8.05;;;7.25;;
58978;SDS011;44763;50.464;30.612;2022-08-26T03:12:42;9.55;;;8.75;;
58978;SDS011;44763;50.464;30.612;2022-08-26T03:15:09;8.70;;;7.80;;
58978;SDS011;44763;50.464;30.612;2022-08-26T03:17:39;10.32;;;8.80;;
58978;SDS011;44763;50.464;30.612;2022-08-26T03:20:06;11.03;;;8.68;;
58978;SDS011;44763;50.464;30.612;2022-08-26T03:22:36;12.82;;;8.50;;
58978;SDS011;44763;50.464;30.612;2022-08-26T03:25:05;8.65;;;7.92;;
58978;SDS011;44763;50.464;30.612;2022-08-26T03:27:35;9.38;;;8.50;;
58978;SDS011;44763;50.464;30.612;2022-08-26T03:30:02;9.90;;;8.48;;
58978;SDS011;44763;50.464;30.612;2022-08-26T03:32:48;8.95;;;8.18;;
58978;SDS011;44763;50.464;30.612;2022-08-26T03:37:42;8.90;;;8.10;;
58978;SDS011;44763;50.464;30.612;2022-08-26T03:42:37;8.83;;;8.00;;
58978;SDS011;44763;50.464;30.612;2022-08-26T03:45:06;13.32;;;7.95;;
58978;SDS011;44763;50.464;30.612;2022-08-26T03:47:37;9.55;;;7.42;;
58978;SDS011;44763;50.464;30.612;2022-08-26T03:50:05;8.70;;;7.80;;
58978;SDS011;44763;50.464;30.612;2022-08-26T03:52:34;7.95;;;7.20;;
58978;SDS011;44763;50.464;30.612;2022-08-26T03:55:01;11.75;;;8.65;;
58978;SDS011;44763;50.464;30.612;2022-08-26T03:57:30;8.03;;;7.22;;
58978;SDS011;44763;50.464;30.612;2022-08-26T03:59:57;9.35;;;6.78;;
58978;SDS011;44763;50.464;30.612;2022-08-26T04:02:23;9.38;;;7.55;;
58978;SDS011;44763;50.464;30.612;2022-08-26T04:04:50;10.08;;;6.67;;
58978;SDS011;44763;50.464;30.612;2022-08-26T04:07:16;7.50;;;6.75;;
58978;SDS011;44763;50.464;30.612;2022-08-26T04:09:43;9.15;;;6.47;;
58978;SDS011;44763;50.464;30.612;2022-08-26T04:12:12;11.68;;;5.72;;
58978;SDS011;44763;50.464;30.612;2022-08-26T04:14:40;8.50;;;6.05;;
58978;SDS011;44763;50.464;30.612;2022-08-26T04:17:07;7.60;;;5.70;;
58978;SDS011;44763;50.464;30.612;2022-08-26T04:19:33;7.87;;;6.22;;
58978;SDS011;44763;50.464;30.612;2022-08-26T04:21:59;7.60;;;6.85;;
58978;SDS011;44763;50.464;30.612;2022-08-26T04:24:27;9.10;;;7.03;;
58978;SDS011;44763;50.464;30.612;2022-08-26T04:26:53;9.30;;;6.87;;
58978;SDS011;44763;50.464;30.612;2022-08-26T04:29:22;9.83;;;6.78;;
58978;SDS011;44763;50.464;30.612;2022-08-26T04:31:51;8.70;;;6.15;;
58978;SDS011;44763;50.464;30.612;2022-08-26T04:34:20;7.50;;;5.55;;
58978;SDS011;44763;50.464;30.612;2022-08-26T04:36:48;10.55;;;5.55;;
58978;SDS011;44763;50.464;30.612;2022-08-26T04:39:16;7.22;;;5.20;;
58978;SDS011;44763;50.464;30.612;2022-08-26T04:41:45;6.17;;;5.58;;
58978;SDS011;44763;50.464;30.612;2022-08-26T04:44:14;6.83;;;5.55;;
58978;SDS011;44763;50.464;30.612;2022-08-26T04:46:42;18.42;;;6.78;;
58978;SDS011;44763;50.464;30.612;2022-08-26T04:49:08;11.88;;;5.12;;
58978;SDS011;44763;50.464;30.612;2022-08-26T04:51:35;8.63;;;5.37;;
58978;SDS011;44763;50.464;30.612;2022-08-26T04:54:02;7.55;;;5.42;;
58978;SDS011;44763;50.464;30.612;2022-08-26T04:56:33;12.18;;;5.37;;
58978;SDS011;44763;50.464;30.612;2022-08-26T04:59:03;7.50;;;5.65;;
58978;SDS011;44763;50.464;30.612;2022-08-26T05:01:33;7.50;;;5.65;;
58978;SDS011;44763;50.464;30.612;2022-08-26T05:04:00;5.17;;;4.40;;
58978;SDS011;44763;50.464;30.612;2022-08-26T05:06:28;7.40;;;4.42;;
58978;SDS011;44763;50.464;30.612;2022-08-26T05:08:54;5.05;;;4.55;;
58978;SDS011;44763;50.464;30.612;2022-08-26T05:11:22;4.97;;;4.25;;
58978;SDS011;44763;50.464;30.612;2022-08-26T05:13:48;8.88;;;5.03;;
58978;SDS011;44763;50.464;30.612;2022-08-26T05:16:15;5.28;;;4.78;;
58978;SDS011;44763;50.464;30.612;2022-08-26T05:18:42;7.53;;;4.50;;
58978;SDS011;44763;50.464;30.612;2022-08-26T05:21:23;4.87;;;4.47;;
58978;SDS011;44763;50.464;30.612;2022-08-26T05:23:51;5.20;;;4.67;;
58978;SDS011;44763;50.464;30.612;2022-08-26T05:26:22;6.53;;;5.03;;
58978;SDS011;44763;50.464;30.612;2022-08-26T05:28:50;8.98;;;4.67;;
58978;SDS011;44763;50.464;30.612;2022-08-26T05:31:19;4.08;;;3.50;;
58978;SDS011;44763;50.464;30.612;2022-08-26T05:33:49;5.78;;;4.50;;
58978;SDS011;44763;50.464;30.612;2022-08-26T05:36:16;6.55;;;3.98;;
58978;SDS011;44763;50.464;30.612;2022-08-26T05:38:45;5.30;;;3.60;;
58978;SDS011;44763;50.464;30.612;2022-08-26T05:41:12;7.72;;;4.22;;
58978;SDS011;44763;50.464;30.612;2022-08-26T05:43:44;10.10;;;3.72;;
58978;SDS011;44763;50.464;30.612;2022-08-26T05:46:11;8.60;;;3.70;;
58978;SDS011;44763;50.464;30.612;2022-08-26T05:48:38;6.40;;;3.20;;
58978;SDS011;44763;50.464;30.612;2022-08-26T05:51:07;5.47;;;3.08;;
58978;SDS011;44763;50.464;30.612;2022-08-26T05:53:35;5.08;;;4.67;;
58978;SDS011;44763;50.464;30.612;2022-08-26T05:56:05;6.95;;;3.35;;
58978;SDS011;44763;50.464;30.612;2022-08-26T05:58:33;9.55;;;3.33;;
58978;SDS011;44763;50.464;30.612;2022-08-26T06:03:34;7.37;;;3.37;;
58978;SDS011;44763;50.464;30.612;2022-08-26T06:06:04;3.37;;;2.67;;
58978;SDS011;44763;50.464;30.612;2022-08-26T06:08:32;12.45;;;3.40;;
58978;SDS011;44763;50.464;30.612;2022-08-26T06:11:00;5.50;;;3.37;;
58978;SDS011;44763;50.464;30.612;2022-08-26T06:13:31;3.30;;;3.00;;
58978;SDS011;44763;50.464;30.612;2022-08-26T06:15:59;5.62;;;2.80;;
58978;SDS011;44763;50.464;30.612;2022-08-26T06:18:32;5.87;;;2.85;;
58978;SDS011;44763;50.464;30.612;2022-08-26T06:21:12;4.55;;;2.70;;
58978;SDS011;44763;50.464;30.612;2022-08-26T06:23:42;11.75;;;3.10;;
58978;SDS011;44763;50.464;30.612;2022-08-26T06:26:29;9.95;;;2.72;;
58978;SDS011;44763;50.464;30.612;2022-08-26T06:28:57;5.90;;;2.95;;
58978;SDS011;44763;50.464;30.612;2022-08-26T06:31:24;6.10;;;3.08;;
58978;SDS011;44763;50.464;30.612;2022-08-26T06:33:51;8.55;;;3.75;;
58978;SDS011;44763;50.464;30.612;2022-08-26T06:36:24;6.70;;;2.67;;
58978;SDS011;44763;50.464;30.612;2022-08-26T06:38:53;3.52;;;2.30;;
58978;SDS011;44763;50.464;30.612;2022-08-26T06:41:22;6.95;;;2.77;;
58978;SDS011;44763;50.464;30.612;2022-08-26T06:43:50;5.90;;;2.72;;
58978;SDS011;44763;50.464;30.612;2022-08-26T06:46:18;12.45;;;2.70;;
58978;SDS011;44763;50.464;30.612;2022-08-26T06:48:46;6.90;;;2.98;;
58978;SDS011;44763;50.464;30.612;2022-08-26T06:51:14;5.33;;;3.08;;
58978;SDS011;44763;50.464;30.612;2022-08-26T06:53:45;8.13;;;1.98;;
58978;SDS011;44763;50.464;30.612;2022-08-26T06:58:51;7.95;;;2.30;;
58978;SDS011;44763;50.464;30.612;2022-08-26T07:01:22;7.28;;;2.87;;
58978;SDS011;44763;50.464;30.612;2022-08-26T07:03:49;9.70;;;2.30;;
58978;SDS011;44763;50.464;30.612;2022-08-26T07:06:18;7.45;;;2.05;;
58978;SDS011;44763;50.464;30.612;2022-08-26T07:08:49;17.62;;;2.30;;
58978;SDS011;44763;50.464;30.612;2022-08-26T07:11:18;10.38;;;3.15;;
58978;SDS011;44763;50.464;30.612;2022-08-26T07:13:45;6.05;;;2.20;;
58978;SDS011;44763;50.464;30.612;2022-08-26T07:16:13;6.95;;;2.20;;
58978;SDS011;44763;50.464;30.612;2022-08-26T07:18:43;11.38;;;3.35;;
58978;SDS011;44763;50.464;30.612;2022-08-26T07:21:12;7.70;;;3.15;;
58978;SDS011;44763;50.464;30.612;2022-08-26T07:23:41;7.80;;;2.35;;
58978;SDS011;44763;50.464;30.612;2022-08-26T07:26:09;7.17;;;1.90;;
58978;SDS011;44763;50.464;30.612;2022-08-26T07:28:40;8.35;;;1.80;;
58978;SDS011;44763;50.464;30.612;2022-08-26T07:31:09;5.05;;;2.42;;
58978;SDS011;44763;50.464;30.612;2022-08-26T07:33:39;5.35;;;2.92;;
58978;SDS011;44763;50.464;30.612;2022-08-26T07:36:07;5.08;;;2.15;;
58978;SDS011;44763;50.464;30.612;2022-08-26T07:38:37;5.87;;;1.95;;
58978;SDS011;44763;50.464;30.612;2022-08-26T07:41:06;5.22;;;2.85;;
58978;SDS011;44763;50.464;30.612;2022-08-26T07:43:34;4.47;;;2.05;;
58978;SDS011;44763;50.464;30.612;2022-08-26T07:46:02;15.10;;;1.92;;
58978;SDS011;44763;50.464;30.612;2022-08-26T07:48:30;5.78;;;2.08;;
58978;SDS011;44763;50.464;30.612;2022-08-26T07:50:56;6.17;;;1.75;;
58978;SDS011;44763;50.464;30.612;2022-08-26T07:53:23;8.05;;;1.92;;
58978;SDS011;44763;50.464;30.612;2022-08-26T07:55:49;8.60;;;2.90;;
58978;SDS011;44763;50.464;30.612;2022-08-26T07:58:17;6.28;;;1.77;;
58978;SDS011;44763;50.464;30.612;2022-08-26T08:00:44;17.12;;;2.33;;
58978;SDS011;44763;50.464;30.612;2022-08-26T08:03:11;11.78;;;1.67;;
58978;SDS011;44763;50.464;30.612;2022-08-26T08:05:40;9.23;;;2.60;;
58978;SDS011;44763;50.464;30.612;2022-08-26T08:08:07;18.37;;;2.55;;
58978;SDS011;44763;50.464;30.612;2022-08-26T08:10:35;9.28;;;1.98;;
58978;SDS011;44763;50.464;30.612;2022-08-26T08:13:02;8.28;;;1.87;;
58978;SDS011;44763;50.464;30.612;2022-08-26T08:15:32;8.90;;;1.50;;
58978;SDS011;44763;50.464;30.612;2022-08-26T08:18:00;6.60;;;1.42;;
58978;SDS011;44763;50.464;30.612;2022-08-26T08:20:26;6.92;;;1.07;;
58978;SDS011;44763;50.464;30.612;2022-08-26T08:22:53;5.62;;;2.45;;
58978;SDS011;44763;50.464;30.612;2022-08-26T08:25:20;8.03;;;1.42;;
58978;SDS011;44763;50.464;30.612;2022-08-26T08:27:48;10.32;;;1.82;;
58978;SDS011;44763;50.464;30.612;2022-08-26T08:30:15;6.80;;;1.67;;
58978;SDS011;44763;50.464;30.612;2022-08-26T08:32:45;10.72;;;1.35;;
58978;SDS011;44763;50.464;30.612;2022-08-26T08:35:12;6.10;;;1.00;;
58978;SDS011;44763;50.464;30.612;2022-08-26T08:37:40;8.50;;;1.30;;
58978;SDS011;44763;50.464;30.612;2022-08-26T08:40:08;11.45;;;1.50;;
58978;SDS011;44763;50.464;30.612;2022-08-26T08:42:51;12.20;;;1.67;;
58978;SDS011;44763;50.464;30.612;2022-08-26T08:48:00;4.08;;;1.27;;
58978;SDS011;44763;50.464;30.612;2022-08-26T08:50:43;8.45;;;0.82;;
58978;SDS011;44763;50.464;30.612;2022-08-26T08:53:36;5.58;;;1.40;;
58978;SDS011;44763;50.464;30.612;2022-08-26T09:09:57;3.90;;;1.30;;
58978;SDS011;44763;50.464;30.612;2022-08-26T09:12:28;8.33;;;1.07;;
58978;SDS011;44763;50.464;30.612;2022-08-26T09:15:02;3.20;;;0.57;;
58978;SDS011;44763;50.464;30.612;2022-08-26T09:23:17;5.22;;;1.17;;
58978;SDS011;44763;50.464;30.612;2022-08-26T09:25:51;8.48;;;0.40;;
58978;SDS011;44763;50.464;30.612;2022-08-26T09:28:26;5.08;;;0.47;;
58978;SDS011;44763;50.464;30.612;2022-08-26T09:31:09;5.97;;;0.40;;
58978;SDS011;44763;50.464;30.612;2022-08-26T09:33:39;3.72;;;0.68;;
58978;SDS011;44763;50.464;30.612;2022-08-26T09:38:59;4.62;;;0.40;;
58978;SDS011;44763;50.464;30.612;2022-08-26T09:41:28;10.82;;;0.40;;
58978;SDS011;44763;50.464;30.612;2022-08-26T09:44:09;5.33;;;1.00;;
58978;SDS011;44763;50.464;30.612;2022-08-26T09:46:40;6.08;;;0.40;;
58978;SDS011;44763;50.464;30.612;2022-08-26T09:49:25;6.58;;;0.60;;
58978;SDS011;44763;50.464;30.612;2022-08-26T09:52:14;5.30;;;0.57;;
58978;SDS011;44763;50.464;30.612;2022-08-26T09:57:50;16.40;;;0.55;;
58978;SDS011;44763;50.464;30.612;2022-08-26T10:00:30;8.10;;;0.62;;
58978;SDS011;44763;50.464;30.612;2022-08-26T10:03:03;1.98;;;0.35;;
58978;SDS011;44763;50.464;30.612;2022-08-26T10:05:44;4.47;;;0.20;;
58978;SDS011;44763;50.464;30.612;2022-08-26T10:08:35;2.22;;;0.20;;
58978;SDS011;44763;50.464;30.612;2022-08-26T10:11:16;1.62;;;0.45;;
58978;SDS011;44763;50.464;30.612;2022-08-26T10:14:30;2.08;;;0.40;;
58978;SDS011;44763;50.464;30.612;2022-08-26T10:19:38;2.75;;;0.30;;
58978;SDS011;44763;50.464;30.612;2022-08-26T10:22:17;6.85;;;0.53;;
58978;SDS011;44763;50.464;30.612;2022-08-26T10:24:52;5.10;;;0.40;;
58978;SDS011;44763;50.464;30.612;2022-08-26T10:27:41;1.30;;;0.30;;
58978;SDS011;44763;50.464;30.612;2022-08-26T10:30:05;2.22;;;0.10;;
58978;SDS011;44763;50.464;30.612;2022-08-26T10:35:18;4.75;;;0.10;;
58978;SDS011;44763;50.464;30.612;2022-08-26T10:37:47;4.37;;;0.30;;
58978;SDS011;44763;50.464;30.612;2022-08-26T10:43:06;2.27;;;0.23;;
58978;SDS011;44763;50.464;30.612;2022-08-26T10:45:45;3.42;;;0.20;;
58978;SDS011;44763;50.464;30.612;2022-08-26T10:48:20;1.90;;;0.20;;
58978;SDS011;44763;50.464;30.612;2022-08-26T10:50:52;4.78;;;0.15;;
58978;SDS011;44763;50.464;30.612;2022-08-26T10:56:28;2.40;;;0.30;;
58978;SDS011;44763;50.464;30.612;2022-08-26T11:02:23;1.27;;;0.20;;
58978;SDS011;44763;50.464;30.612;2022-08-26T11:05:18;2.98;;;0.15;;
58978;SDS011;44763;50.464;30.612;2022-08-26T11:07:50;3.95;;;0.37;;
58978;SDS011;44763;50.464;30.612;2022-08-26T11:13:07;1.75;;;0.13;;
58978;SDS011;44763;50.464;30.612;2022-08-26T11:18:35;2.00;;;0.40;;
58978;SDS011;44763;50.464;30.612;2022-08-26T11:21:40;3.77;;;0.20;;
58978;SDS011;44763;50.464;30.612;2022-08-26T11:24:28;3.10;;;0.90;;
58978;SDS011;44763;50.464;30.612;2022-08-26T11:27:49;2.15;;;0.30;;
58978;SDS011;44763;50.464;30.612;2022-08-26T11:37:50;6.03;;;0.28;;
58978;SDS011;44763;50.464;30.612;2022-08-26T11:40:27;2.02;;;0.42;;
58978;SDS011;44763;50.464;30.612;2022-08-26T11:43:04;1.65;;;0.40;;
58978;SDS011;44763;50.464;30.612;2022-08-26T11:45:40;6.25;;;0.57;;
58978;SDS011;44763;50.464;30.612;2022-08-26T11:48:21;10.98;;;0.53;;
58978;SDS011;44763;50.464;30.612;2022-08-26T11:50:56;2.52;;;0.60;;
58978;SDS011;44763;50.464;30.612;2022-08-26T11:53:33;2.67;;;0.40;;
58978;SDS011;44763;50.464;30.612;2022-08-26T11:56:09;3.37;;;0.20;;
58978;SDS011;44763;50.464;30.612;2022-08-26T11:58:59;3.20;;;0.30;;
58978;SDS011;44763;50.464;30.612;2022-08-26T12:01:29;12.18;;;0.40;;
58978;SDS011;44763;50.464;30.612;2022-08-26T12:04:06;6.70;;;0.70;;
58978;SDS011;44763;50.464;30.612;2022-08-26T12:06:36;3.87;;;0.55;;
58978;SDS011;44763;50.464;30.612;2022-08-26T12:09:20;10.50;;;0.40;;
58978;SDS011;44763;50.464;30.612;2022-08-26T12:12:13;5.65;;;0.30;;
58978;SDS011;44763;50.464;30.612;2022-08-26T12:14:42;1.00;;;0.13;;
58978;SDS011;44763;50.464;30.612;2022-08-26T12:17:10;1.92;;;0.30;;
58978;SDS011;44763;50.464;30.612;2022-08-26T12:19:40;4.80;;;0.57;;
58978;SDS011;44763;50.464;30.612;2022-08-26T12:22:09;1.70;;;0.10;;
58978;SDS011;44763;50.464;30.612;2022-08-26T12:24:48;0.55;;;0.20;;
58978;SDS011;44763;50.464;30.612;2022-08-26T12:32:37;4.40;;;0.20;;
58978;SDS011;44763;50.464;30.612;2022-08-26T12:35:11;2.72;;;0.50;;
58978;SDS011;44763;50.464;30.612;2022-08-26T12:37:41;11.08;;;0.50;;
58978;SDS011;44763;50.464;30.612;2022-08-26T12:43:01;4.92;;;0.72;;
58978;SDS011;44763;50.464;30.612;2022-08-26T12:45:32;2.12;;;0.50;;
58978;SDS011;44763;50.464;30.612;2022-08-26T12:48:06;2.72;;;0.20;;
58978;SDS011;44763;50.464;30.612;2022-08-26T12:50:38;7.08;;;0.80;;
58978;SDS011;44763;50.464;30.612;2022-08-26T12:55:50;0.60;;;0.20;;
58978;SDS011;44763;50.464;30.612;2022-08-26T12:58:27;3.87;;;0.30;;
58978;SDS011;44763;50.464;30.612;2022-08-26T13:14:17;7.37;;;0.80;;
58978;SDS011;44763;50.464;30.612;2022-08-26T13:16:47;3.30;;;0.57;;
58978;SDS011;44763;50.464;30.612;2022-08-26T13:19:15;1.75;;;0.30;;
58978;SDS011;44763;50.464;30.612;2022-08-26T13:21:45;0.80;;;0.30;;
58978;SDS011;44763;50.464;30.612;2022-08-26T13:24:19;0.55;;;0.25;;
58978;SDS011;44763;50.464;30.612;2022-08-26T13:26:49;10.40;;;0.30;;
58978;SDS011;44763;50.464;30.612;2022-08-26T13:29:15;5.65;;;0.42;;
58978;SDS011;44763;50.464;30.612;2022-08-26T13:31:43;12.78;;;0.68;;
58978;SDS011;44763;50.464;30.612;2022-08-26T13:34:10;4.97;;;0.55;;
58978;SDS011;44763;50.464;30.612;2022-08-26T13:36:40;3.55;;;0.30;;
58978;SDS011;44763;50.464;30.612;2022-08-26T13:39:08;1.50;;;0.20;;
58978;SDS011;44763;50.464;30.612;2022-08-26T13:41:36;4.55;;;0.25;;
58978;SDS011;44763;50.464;30.612;2022-08-26T13:44:02;2.22;;;0.35;;
58978;SDS011;44763;50.464;30.612;2022-08-26T13:46:29;3.30;;;0.35;;
58978;SDS011;44763;50.464;30.612;2022-08-26T13:48:56;2.17;;;0.20;;
58978;SDS011;44763;50.464;30.612;2022-08-26T13:51:23;2.27;;;0.53;;
58978;SDS011;44763;50.464;30.612;2022-08-26T13:53:51;2.67;;;0.53;;
58978;SDS011;44763;50.464;30.612;2022-08-26T13:56:18;3.20;;;0.37;;
58978;SDS011;44763;50.464;30.612;2022-08-26T13:58:45;7.45;;;0.68;;
58978;SDS011;44763;50.464;30.612;2022-08-26T14:01:12;7.70;;;0.55;;
58978;SDS011;44763;50.464;30.612;2022-08-26T14:03:40;1.12;;;0.33;;
58978;SDS011;44763;50.464;30.612;2022-08-26T14:06:10;4.12;;;0.20;;
58978;SDS011;44763;50.464;30.612;2022-08-26T14:08:38;2.52;;;0.40;;
58978;SDS011;44763;50.464;30.612;2022-08-26T14:11:05;2.15;;;0.20;;
58978;SDS011;44763;50.464;30.612;2022-08-26T14:13:33;3.40;;;0.30;;
58978;SDS011;44763;50.464;30.612;2022-08-26T14:16:00;0.42;;;0.20;;
58978;SDS011;44763;50.464;30.612;2022-08-26T14:18:30;6.22;;;0.20;;
58978;SDS011;44763;50.464;30.612;2022-08-26T14:21:02;1.40;;;0.20;;
58978;SDS011;44763;50.464;30.612;2022-08-26T14:23:30;2.90;;;0.20;;
58978;SDS011;44763;50.464;30.612;2022-08-26T14:25:58;5.67;;;0.35;;
58978;SDS011;44763;50.464;30.612;2022-08-26T14:28:24;1.35;;;0.35;;
58978;SDS011;44763;50.464;30.612;2022-08-26T14:30:52;3.47;;;0.20;;
58978;SDS011;44763;50.464;30.612;2022-08-26T14:33:22;3.65;;;0.20;;
58978;SDS011;44763;50.464;30.612;2022-08-26T14:35:50;7.80;;;0.85;;
58978;SDS011;44763;50.464;30.612;2022-08-26T14:38:16;2.20;;;0.40;;
58978;SDS011;44763;50.464;30.612;2022-08-26T14:40:43;1.17;;;0.35;;
58978;SDS011;44763;50.464;30.612;2022-08-26T14:43:12;1.92;;;0.20;;
58978;SDS011;44763;50.464;30.612;2022-08-26T14:45:42;3.00;;;0.40;;
58978;SDS011;44763;50.464;30.612;2022-08-26T14:48:10;2.98;;;0.15;;
58978;SDS011;44763;50.464;30.612;2022-08-26T14:50:36;4.92;;;0.30;;
58978;SDS011;44763;50.464;30.612;2022-08-26T14:53:02;0.68;;;0.10;;
58978;SDS011;44763;50.464;30.612;2022-08-26T14:55:47;1.37;;;0.30;;
58978;SDS011;44763;50.464;30.612;2022-08-26T14:58:14;7.50;;;0.20;;
58978;SDS011;44763;50.464;30.612;2022-08-26T15:00:40;1.70;;;0.20;;
58978;SDS011;44763;50.464;30.612;2022-08-26T15:03:06;6.28;;;0.42;;
58978;SDS011;44763;50.464;30.612;2022-08-26T15:05:33;3.90;;;0.60;;
58978;SDS011;44763;50.464;30.612;2022-08-26T15:07:59;3.15;;;0.40;;
58978;SDS011;44763;50.464;30.612;2022-08-26T15:10:30;3.10;;;0.42;;
58978;SDS011;44763;50.464;30.612;2022-08-26T15:12:56;3.20;;;0.20;;
58978;SDS011;44763;50.464;30.612;2022-08-26T15:15:23;2.35;;;0.30;;
58978;SDS011;44763;50.464;30.612;2022-08-26T15:17:49;4.35;;;0.37;;
58978;SDS011;44763;50.464;30.612;2022-08-26T15:20:15;5.03;;;0.40;;
58978;SDS011;44763;50.464;30.612;2022-08-26T15:22:42;4.95;;;0.45;;
58978;SDS011;44763;50.464;30.612;2022-08-26T15:25:09;4.70;;;0.68;;
58978;SDS011;44763;50.464;30.612;2022-08-26T15:27:37;1.60;;;0.30;;
58978;SDS011;44763;50.464;30.612;2022-08-26T15:30:04;3.70;;;0.40;;
58978;SDS011;44763;50.464;30.612;2022-08-26T15:32:34;1.05;;;0.47;;
58978;SDS011;44763;50.464;30.612;2022-08-26T15:35:00;2.52;;;0.35;;
58978;SDS011;44763;50.464;30.612;2022-08-26T15:37:27;8.05;;;0.62;;
58978;SDS011;44763;50.464;30.612;2022-08-26T15:39:53;2.37;;;0.40;;
58978;SDS011;44763;50.464;30.612;2022-08-26T15:42:19;5.62;;;0.53;;
58978;SDS011;44763;50.464;30.612;2022-08-26T15:44:45;3.25;;;0.30;;
58978;SDS011;44763;50.464;30.612;2022-08-26T15:47:11;1.72;;;0.33;;
58978;SDS011;44763;50.464;30.612;2022-08-26T15:49:38;5.45;;;0.70;;
58978;SDS011;44763;50.464;30.612;2022-08-26T15:52:05;4.12;;;0.70;;
58978;SDS011;44763;50.464;30.612;2022-08-26T15:54:32;4.70;;;0.80;;
58978;SDS011;44763;50.464;30.612;2022-08-26T15:57:00;5.00;;;0.80;;
58978;SDS011;44763;50.464;30.612;2022-08-26T15:59:28;2.83;;;0.47;;
58978;SDS011;44763;50.464;30.612;2022-08-26T16:01:57;8.75;;;0.70;;
58978;SDS011;44763;50.464;30.612;2022-08-26T16:04:24;8.28;;;1.72;;
58978;SDS011;44763;50.464;30.612;2022-08-26T16:06:52;3.37;;;1.00;;
58978;SDS011;44763;50.464;30.612;2022-08-26T16:09:20;1.55;;;0.82;;
58978;SDS011;44763;50.464;30.612;2022-08-26T16:11:49;1.27;;;0.68;;
58978;SDS011;44763;50.464;30.612;2022-08-26T16:14:17;1.72;;;0.90;;
58978;SDS011;44763;50.464;30.612;2022-08-26T16:16:43;3.25;;;0.55;;
58978;SDS011;44763;50.464;30.612;2022-08-26T16:19:09;2.35;;;0.90;;
58978;SDS011;44763;50.464;30.612;2022-08-26T16:21:36;9.20;;;1.40;;
58978;SDS011;44763;50.464;30.612;2022-08-26T16:24:03;3.45;;;0.95;;
58978;SDS011;44763;50.464;30.612;2022-08-26T16:26:30;3.52;;;1.20;;
58978;SDS011;44763;50.464;30.612;2022-08-26T16:29:01;7.47;;;1.80;;
58978;SDS011;44763;50.464;30.612;2022-08-26T16:31:31;2.77;;;0.90;;